createdAt,value
2022-08-16T00:00:22.508Z,42.26
2022-08-16T00:02:47.349Z,42.12
2022-08-16T00:05:20.239Z,42.02
2022-08-16T00:08:07.109Z,42.01
2022-08-16T00:10:40.109Z,41.92
2022-08-16T00:13:13.233Z,41.95
2022-08-16T00:15:51.149Z,42.17
2022-08-16T00:18:19.255Z,42.11
2022-08-16T00:20:52.237Z,42.06
2022-08-16T00:23:34.653Z,41.86
2022-08-16T00:26:35.905Z,41.92
2022-08-16T00:28:31.325Z,41.95
2022-08-16T00:31:04.246Z,41.97
2022-08-16T00:33:37.270Z,42.00
2022-08-16T00:36:10.297Z,42.00
2022-08-16T00:38:43.483Z,41.96
2022-08-16T00:41:17.117Z,41.97
2022-08-16T00:43:55.226Z,41.95
2022-08-16T00:46:34.704Z,42.01
2022-08-16T00:49:01.264Z,41.94
2022-08-16T00:51:34.348Z,42.02
2022-08-16T00:54:07.322Z,42.08
2022-08-16T00:56:58.186Z,41.95
2022-08-16T00:59:15.224Z,41.93
2022-08-16T01:01:46.265Z,41.91
2022-08-16T01:04:29.290Z,41.83
2022-08-16T01:07:02.279Z,41.88
2022-08-16T01:09:25.319Z,41.92
2022-08-16T01:11:58.329Z,41.92
2022-08-16T01:14:31.279Z,42.00
2022-08-16T01:17:04.354Z,41.92
2022-08-16T01:19:37.293Z,41.97
2022-08-16T01:22:47.062Z,42.02
2022-08-16T01:24:53.378Z,41.94
2022-08-16T01:27:17.470Z,42.01
2022-08-16T01:29:57.874Z,41.93
2022-08-16T01:32:33.832Z,42.00
2022-08-16T01:34:56.942Z,41.99
2022-08-16T01:37:28.319Z,41.95
2022-08-16T01:40:01.434Z,41.92
2022-08-16T01:42:34.429Z,41.95
2022-08-16T01:45:07.411Z,42.01
2022-08-16T01:47:50.858Z,42.00
2022-08-16T01:50:42.710Z,42.03
2022-08-16T01:52:46.441Z,42.03
2022-08-16T01:55:19.346Z,42.14
2022-08-16T01:57:53.454Z,42.16
2022-08-16T02:00:29.467Z,42.17
2022-08-16T02:02:58.441Z,42.16
2022-08-16T02:05:31.345Z,42.17
2022-08-16T02:08:04.468Z,42.16
2022-08-16T02:10:37.050Z,42.25
2022-08-16T02:13:10.380Z,42.31
2022-08-16T02:15:43.915Z,42.37
2022-08-16T02:18:18.487Z,42.38
2022-08-16T02:20:49.437Z,42.25
2022-08-16T02:23:22.450Z,42.28
2022-08-16T02:25:55.447Z,42.33
2022-08-16T02:28:28.353Z,42.27
2022-08-16T02:31:01.390Z,42.31
2022-08-16T02:33:44.553Z,42.37
2022-08-16T02:36:07.436Z,42.40
2022-08-16T02:38:40.391Z,42.24
2022-08-16T02:41:13.405Z,42.33
2022-08-16T02:43:46.390Z,42.39
2022-08-16T02:46:19.408Z,42.37
2022-08-16T02:48:52.532Z,42.40
2022-08-16T02:51:25.495Z,42.37
2022-08-16T02:53:58.478Z,42.39
2022-08-16T02:56:31.448Z,42.37
2022-08-16T02:59:11.787Z,42.57
2022-08-16T03:01:37.542Z,42.54
2022-08-16T03:04:28.792Z,42.54
2022-08-16T03:06:43.461Z,42.50
2022-08-16T03:09:16.627Z,42.55
2022-08-16T03:11:49.425Z,42.55
2022-08-16T03:14:24.635Z,42.61
2022-08-16T03:16:58.648Z,42.57
2022-08-16T03:19:47.366Z,42.58
2022-08-16T03:22:01.461Z,42.58
2022-08-16T03:24:34.446Z,42.65
2022-08-16T03:27:07.509Z,42.48
2022-08-16T03:29:51.155Z,42.72
2022-08-16T03:32:13.787Z,42.57
2022-08-16T03:34:49.863Z,42.65
2022-08-16T03:37:19.655Z,42.68
2022-08-16T03:39:56.923Z,42.74
2022-08-16T03:42:25.546Z,42.77
2022-08-16T03:45:03.338Z,42.72
2022-08-16T03:47:34.273Z,42.75
2022-08-16T03:50:04.544Z,42.74
2022-08-16T03:52:37.581Z,42.90
2022-08-16T03:55:10.620Z,43.02
2022-08-16T03:57:43.576Z,42.89
2022-08-16T04:00:20.438Z,42.86
2022-08-16T04:02:52.570Z,42.83
2022-08-16T04:05:25.620Z,42.96
2022-08-16T04:07:58.541Z,42.82
2022-08-16T04:10:37.067Z,42.90
2022-08-16T04:13:04.904Z,42.84
2022-08-16T04:15:37.612Z,42.94
2022-08-16T04:18:10.235Z,42.78
2022-08-16T04:20:43.277Z,43.24
2022-08-16T04:23:16.271Z,43.35
2022-08-16T04:25:49.390Z,43.40
2022-08-16T04:28:51.710Z,43.69
2022-08-16T04:30:55.469Z,43.99
2022-08-16T04:33:28.452Z,44.28
2022-08-16T04:36:04.753Z,44.58
2022-08-16T04:38:37.578Z,44.89
2022-08-16T04:41:10.604Z,45.14
2022-08-16T04:43:43.891Z,45.46
2022-08-16T04:46:33.207Z,45.64
2022-08-16T04:48:49.611Z,45.90
2022-08-16T04:51:22.647Z,46.00
2022-08-16T04:53:55.654Z,46.07
2022-08-16T04:56:29.700Z,46.00
2022-08-16T04:59:02.674Z,46.17
2022-08-16T05:01:58.856Z,46.17
2022-08-16T05:04:19.526Z,46.04
2022-08-16T05:06:45.535Z,45.84
2022-08-16T05:09:16.324Z,45.70
2022-08-16T05:11:47.586Z,45.49
2022-08-16T05:14:45.222Z,45.52
2022-08-16T05:16:53.691Z,45.61
2022-08-16T05:19:26.765Z,45.57
2022-08-16T05:21:59.629Z,45.35
2022-08-16T05:24:32.701Z,45.59
2022-08-16T05:27:11.425Z,45.47
2022-08-16T05:29:59.972Z,45.88
2022-08-16T05:32:32.676Z,45.92
2022-08-16T05:34:45.587Z,46.05
2022-08-16T05:37:18.368Z,46.12
2022-08-16T05:39:51.712Z,46.23
2022-08-16T05:42:35.976Z,46.45
2022-08-16T05:44:57.705Z,46.44
2022-08-16T05:47:30.644Z,46.39
2022-08-16T05:50:03.727Z,46.39
2022-08-16T05:52:36.728Z,46.42
2022-08-16T05:55:09.687Z,46.77
2022-08-16T05:57:42.442Z,46.71
2022-08-16T06:00:22.421Z,46.66
2022-08-16T06:02:48.551Z,46.58
2022-08-16T06:05:21.489Z,46.47
2022-08-16T06:07:58.243Z,46.35
2022-08-16T06:10:32.507Z,46.15
2022-08-16T06:13:00.452Z,46.07
2022-08-16T06:15:33.563Z,45.94
2022-08-16T06:18:06.480Z,45.74
2022-08-16T06:20:55.465Z,45.60
2022-08-16T06:23:17.432Z,45.67
2022-08-16T06:25:53.307Z,45.57
2022-08-16T06:28:36.396Z,45.47
2022-08-16T06:30:51.837Z,45.40
2022-08-16T06:33:24.769Z,45.33
2022-08-16T06:35:59.505Z,45.24
2022-08-16T06:38:32.315Z,45.10
2022-08-16T06:41:03.898Z,45.09
2022-08-16T06:43:36.753Z,44.97
2022-08-16T06:46:10.038Z,44.91
2022-08-16T06:48:44.048Z,44.87
2022-08-16T06:51:15.762Z,44.81
2022-08-16T06:53:48.768Z,44.77
2022-08-16T06:56:23.358Z,44.73
2022-08-16T06:58:54.881Z,44.71
2022-08-16T07:01:44.516Z,44.67
2022-08-16T07:04:00.839Z,44.64
2022-08-16T07:06:33.826Z,44.62
2022-08-16T07:09:09.623Z,44.61
2022-08-16T07:11:46.005Z,44.57
2022-08-16T07:14:23.796Z,44.55
2022-08-16T07:16:45.859Z,44.56
2022-08-16T07:19:18.763Z,44.53
2022-08-16T07:21:59.461Z,44.47
2022-08-16T07:24:29.643Z,44.48
2022-08-16T07:26:57.856Z,44.47
2022-08-16T07:29:31.763Z,44.46
2022-08-16T07:32:03.711Z,44.44
2022-08-16T07:34:46.371Z,44.40
2022-08-16T07:37:09.921Z,44.38
2022-08-16T07:39:43.738Z,44.37
2022-08-16T07:42:20.234Z,44.37
2022-08-16T07:44:50.639Z,44.37
2022-08-16T07:47:24.601Z,44.34
2022-08-16T07:49:58.184Z,44.35
2022-08-16T07:52:29.706Z,44.32
2022-08-16T07:55:00.831Z,44.29
2022-08-16T07:57:37.966Z,44.29
2022-08-16T08:00:06.925Z,44.27
2022-08-16T08:02:39.840Z,44.28
2022-08-16T08:05:12.891Z,44.26
2022-08-16T08:07:45.979Z,44.24
2022-08-16T08:10:29.609Z,44.21
2022-08-16T08:12:52.250Z,44.21
2022-08-16T08:15:25.296Z,44.21
2022-08-16T08:18:29.428Z,44.19
2022-08-16T08:20:30.984Z,44.18
2022-08-16T08:23:03.949Z,44.16
2022-08-16T08:25:54.167Z,44.16
2022-08-16T08:28:11.036Z,44.15
2022-08-16T08:30:51.615Z,44.11
2022-08-16T08:33:16.016Z,44.09
2022-08-16T08:35:48.966Z,44.07
2022-08-16T08:38:44.217Z,44.06
2022-08-16T08:40:54.967Z,44.05
2022-08-16T08:43:28.050Z,44.04
2022-08-16T08:46:01.003Z,44.03
2022-08-16T08:48:36.862Z,44.02
2022-08-16T08:51:08.739Z,43.99
2022-08-16T08:53:39.989Z,43.97
2022-08-16T08:56:15.650Z,43.96
2022-08-16T08:58:54.935Z,43.96
2022-08-16T09:01:18.939Z,43.96
2022-08-16T09:03:52.136Z,43.93
2022-08-16T09:06:24.967Z,43.91
2022-08-16T09:08:58.040Z,43.90
2022-08-16T09:11:40.556Z,43.90
2022-08-16T09:14:04.070Z,43.86
2022-08-16T09:17:03.059Z,43.85
2022-08-16T09:19:10.011Z,43.85
2022-08-16T09:21:42.860Z,43.82
2022-08-16T09:24:46.413Z,43.82
2022-08-16T09:26:49.039Z,43.79
2022-08-16T09:29:23.742Z,43.78
2022-08-16T09:31:54.811Z,43.76
2022-08-16T09:34:27.715Z,43.75
2022-08-16T09:37:01.087Z,43.75
2022-08-16T09:39:41.359Z,43.70
2022-08-16T09:42:06.963Z,43.71
2022-08-16T09:45:12.160Z,43.68
2022-08-16T09:47:13.051Z,43.68
2022-08-16T09:49:46.062Z,43.65
2022-08-16T09:52:19.018Z,43.65
2022-08-16T09:54:51.882Z,43.64
2022-08-16T09:57:24.765Z,43.63
2022-08-16T09:59:57.894Z,43.62
2022-08-16T10:02:30.756Z,43.62
2022-08-16T10:05:03.808Z,43.59
2022-08-16T10:07:44.753Z,43.59
2022-08-16T10:10:11.693Z,43.58
2022-08-16T10:12:43.299Z,43.56
2022-08-16T10:15:18.687Z,43.53
2022-08-16T10:18:01.562Z,43.52
2022-08-16T10:20:24.876Z,43.50
2022-08-16T10:23:05.527Z,43.50
2022-08-16T10:27:16.894Z,43.46
2022-08-16T10:28:26.146Z,43.45
2022-08-16T10:30:36.959Z,43.44
2022-08-16T10:33:10.115Z,43.40
2022-08-16T10:35:46.747Z,43.40
2022-08-16T10:38:27.096Z,43.38
2022-08-16T10:40:48.895Z,43.38
2022-08-16T10:43:21.946Z,43.38
2022-08-16T10:46:01.362Z,43.37
2022-08-16T10:48:33.818Z,43.34
2022-08-16T10:51:06.863Z,43.36
2022-08-16T10:53:40.255Z,43.33
2022-08-16T10:56:52.374Z,43.32
2022-08-16T10:58:46.934Z,43.29
2022-08-16T11:01:39.811Z,43.29
2022-08-16T11:03:54.648Z,43.28
2022-08-16T11:06:27.915Z,43.26
2022-08-16T11:11:32.108Z,43.26
2022-08-16T11:14:05.972Z,43.25
2022-08-16T11:19:13.621Z,43.25
2022-08-16T11:24:42.710Z,43.21
2022-08-16T11:29:26.764Z,43.21
2022-08-16T11:32:00.234Z,43.20
2022-08-16T11:34:56.612Z,43.17
2022-08-16T11:37:06.183Z,43.17
2022-08-16T11:39:39.281Z,43.17
2022-08-16T11:42:23.156Z,43.20
2022-08-16T11:44:52.695Z,43.15
2022-08-16T11:47:18.049Z,43.17
2022-08-16T11:49:51.047Z,43.17
2022-08-16T11:52:24.232Z,43.14
2022-08-16T11:55:10.834Z,43.13
2022-08-16T11:57:44.205Z,43.14
2022-08-16T12:00:34.119Z,43.12
2022-08-16T12:02:50.055Z,43.13
2022-08-16T12:05:23.039Z,43.11
2022-08-16T12:07:56.263Z,43.08
2022-08-16T12:10:29.263Z,43.12
2022-08-16T12:13:02.765Z,43.11
2022-08-16T12:15:35.265Z,43.10
2022-08-16T12:18:08.314Z,43.11
2022-08-16T12:20:41.036Z,43.09
2022-08-16T12:23:14.269Z,43.10
2022-08-16T12:25:47.084Z,43.09
2022-08-16T12:28:54.088Z,43.12
2022-08-16T12:31:07.313Z,43.10
2022-08-16T12:33:44.538Z,43.09
2022-08-16T12:36:13.403Z,43.08
2022-08-16T12:38:48.771Z,43.08
2022-08-16T12:41:25.107Z,43.06
2022-08-16T12:44:07.394Z,43.06
2022-08-16T12:46:41.452Z,43.03
2022-08-16T12:49:15.395Z,43.03
2022-08-16T12:51:58.161Z,43.03
2022-08-16T12:54:22.340Z,43.02
2022-08-16T12:56:55.591Z,43.01
2022-08-16T12:59:31.175Z,43.01
2022-08-16T13:02:03.138Z,43.00
2022-08-16T13:04:36.196Z,43.00
2022-08-16T13:07:08.975Z,42.98
2022-08-16T13:09:42.219Z,42.98
2022-08-16T13:12:15.000Z,42.98
2022-08-16T13:14:49.983Z,42.96
2022-08-16T13:17:21.377Z,42.96
2022-08-16T13:20:11.049Z,42.95
2022-08-16T13:22:27.425Z,42.95
2022-08-16T13:25:00.423Z,42.92
2022-08-16T13:28:02.986Z,42.92
2022-08-16T13:30:21.700Z,42.96
2022-08-16T13:32:40.395Z,42.96
2022-08-16T13:35:12.618Z,42.92
2022-08-16T13:37:45.138Z,42.89
2022-08-16T13:40:20.098Z,42.88
2022-08-16T13:42:51.169Z,42.89
2022-08-16T13:45:24.396Z,42.88
2022-08-16T13:47:57.270Z,42.87
2022-08-16T13:50:31.414Z,42.87
2022-08-16T13:53:04.096Z,42.84
2022-08-16T13:55:37.230Z,42.83
2022-08-16T13:58:35.070Z,42.85
2022-08-16T14:00:44.156Z,42.80
2022-08-16T14:03:18.366Z,42.79
2022-08-16T14:05:50.232Z,42.77
2022-08-16T14:08:27.173Z,42.76
2022-08-16T14:10:56.077Z,42.73
2022-08-16T14:13:29.226Z,42.74
2022-08-16T14:16:02.543Z,42.72
2022-08-16T14:18:36.534Z,42.71
2022-08-16T14:21:10.131Z,42.70
2022-08-16T14:23:43.286Z,42.69
2022-08-16T14:26:16.389Z,42.73
2022-08-16T14:28:49.164Z,42.67
2022-08-16T14:31:22.478Z,42.67
2022-08-16T14:33:55.100Z,42.68
2022-08-16T14:36:29.794Z,42.70
2022-08-16T14:39:01.431Z,42.65
2022-08-16T14:41:34.190Z,42.65
2022-08-16T14:44:07.163Z,42.63
2022-08-16T14:46:40.217Z,42.62
2022-08-16T14:49:13.169Z,42.62
2022-08-16T14:51:46.510Z,42.62
2022-08-16T14:54:19.494Z,42.61
2022-08-16T14:56:54.479Z,42.58
2022-08-16T14:59:25.146Z,42.59
2022-08-16T15:02:00.770Z,42.58
2022-08-16T15:04:32.394Z,42.57
2022-08-16T15:07:05.279Z,42.57
2022-08-16T15:09:44.485Z,42.57
2022-08-16T15:12:26.662Z,42.57
2022-08-16T15:14:43.174Z,43.40
2022-08-16T15:17:16.310Z,43.78
2022-08-16T15:20:03.485Z,43.75
2022-08-16T15:22:36.384Z,43.83
2022-08-16T15:25:09.406Z,43.72
2022-08-16T15:27:42.309Z,43.73
2022-08-16T15:30:56.489Z,44.02
2022-08-16T15:32:48.405Z,44.00
2022-08-16T15:35:21.318Z,44.55
2022-08-16T15:37:54.969Z,44.61
2022-08-16T15:40:35.353Z,44.42
2022-08-16T15:43:00.233Z,44.26
2022-08-16T15:45:33.333Z,44.07
2022-08-16T15:48:06.374Z,44.17
2022-08-16T15:50:39.362Z,44.10
2022-08-16T15:53:12.577Z,44.31
2022-08-16T15:55:45.444Z,44.43
2022-08-16T15:58:38.324Z,44.20
2022-08-16T16:00:51.429Z,44.14
2022-08-16T16:03:24.354Z,44.10
2022-08-16T16:05:57.473Z,44.39
2022-08-16T16:08:30.234Z,44.23
2022-08-16T16:11:03.469Z,44.18
2022-08-16T16:13:36.409Z,44.66
2022-08-16T16:16:13.358Z,44.48
2022-08-16T16:18:42.537Z,44.62
2022-08-16T16:21:20.168Z,44.41
2022-08-16T16:23:54.826Z,44.69
2022-08-16T16:26:21.426Z,44.70
2022-08-16T16:29:07.830Z,44.36
2022-08-16T16:31:27.551Z,44.13
2022-08-16T16:34:00.457Z,44.15
2022-08-16T16:36:33.516Z,44.52
2022-08-16T16:39:06.507Z,44.68
2022-08-16T16:41:39.683Z,44.67
2022-08-16T16:44:22.616Z,44.67
2022-08-16T16:46:56.563Z,44.66
2022-08-16T16:49:21.347Z,44.68
2022-08-16T16:51:54.491Z,44.40
2022-08-16T16:54:28.528Z,44.28
2022-08-16T16:57:00.513Z,44.09
2022-08-16T16:59:33.431Z,44.08
2022-08-16T17:02:38.899Z,43.99
2022-08-16T17:04:39.488Z,43.96
2022-08-16T17:07:12.467Z,43.98
2022-08-16T17:09:45.534Z,43.96
2022-08-16T17:12:25.445Z,43.98
2022-08-16T17:14:51.612Z,43.98
2022-08-16T17:17:24.622Z,43.97
2022-08-16T17:19:59.188Z,43.97
2022-08-16T17:22:33.067Z,43.98
2022-08-16T17:25:03.388Z,44.11
2022-08-16T17:27:36.465Z,44.71
2022-08-16T17:32:56.383Z,44.92
2022-08-16T17:35:34.172Z,45.14
2022-08-16T17:38:02.688Z,45.31
2022-08-16T17:39:28.095Z,45.06
2022-08-16T17:40:45.911Z,45.58
2022-08-16T17:43:08.406Z,45.65
2022-08-16T17:45:41.505Z,45.63
2022-08-16T17:48:14.416Z,45.59
2022-08-16T17:50:47.962Z,45.45
2022-08-16T17:53:21.552Z,45.43
2022-08-16T17:55:54.506Z,45.07
2022-08-16T17:58:27.487Z,45.08
2022-08-16T18:01:00.432Z,45.11
2022-08-16T18:04:02.842Z,45.12
2022-08-16T18:06:06.791Z,45.15
2022-08-16T18:08:40.583Z,45.15
2022-08-16T18:11:17.229Z,45.14
2022-08-16T18:13:50.676Z,45.12
2022-08-16T18:16:23.510Z,45.00
2022-08-16T18:18:56.682Z,44.99
2022-08-16T18:21:29.811Z,44.92
2022-08-16T18:24:02.582Z,44.95
2022-08-16T18:26:35.550Z,44.82
2022-08-16T18:29:08.435Z,44.83
2022-08-16T18:31:41.520Z,44.67
2022-08-16T18:34:14.691Z,44.54
2022-08-16T18:37:01.460Z,44.46
2022-08-16T18:39:34.858Z,44.36
2022-08-16T18:42:07.831Z,44.25
2022-08-16T18:44:43.449Z,44.28
2022-08-16T18:47:16.580Z,44.08
2022-08-16T18:50:03.764Z,44.13
2022-08-16T18:52:36.853Z,44.06
2022-08-16T18:55:14.476Z,44.02
2022-08-16T19:00:16.514Z,43.96
2022-08-16T19:02:57.961Z,43.99
2022-08-16T19:05:22.741Z,44.04
2022-08-16T19:07:55.621Z,44.17
2022-08-16T19:10:29.074Z,44.10
2022-08-16T19:13:02.667Z,44.02
2022-08-16T19:15:35.681Z,44.04
2022-08-16T19:18:09.019Z,43.96
2022-08-16T19:20:42.608Z,44.01
2022-08-16T19:23:16.373Z,43.88
2022-08-16T19:25:52.856Z,44.00
2022-08-16T19:28:49.596Z,43.86
2022-08-16T19:30:57.555Z,44.00
2022-08-16T19:33:31.059Z,43.75
2022-08-16T19:36:05.027Z,43.67
2022-08-16T19:38:39.427Z,43.65
2022-08-16T19:41:12.685Z,43.69
2022-08-16T19:43:45.539Z,43.59
2022-08-16T19:46:18.717Z,43.52
2022-08-16T19:48:51.664Z,43.40
2022-08-16T19:51:24.616Z,43.42
2022-08-16T19:53:57.548Z,43.52
2022-08-16T19:56:33.514Z,43.15
2022-08-16T19:59:40.192Z,43.20
2022-08-16T20:01:42.520Z,43.22
2022-08-16T20:04:13.334Z,43.22
2022-08-16T20:06:45.984Z,43.29
2022-08-16T20:09:21.811Z,43.19
2022-08-16T20:11:54.787Z,43.10
2022-08-16T20:14:27.929Z,42.97
2022-08-16T20:17:00.648Z,42.89
2022-08-16T20:19:40.632Z,43.06
2022-08-16T20:22:42.241Z,43.00
2022-08-16T20:24:59.527Z,42.75
2022-08-16T20:27:32.733Z,43.50
2022-08-16T20:30:05.783Z,43.07
2022-08-16T20:32:38.733Z,43.22
2022-08-16T20:35:11.644Z,43.41
2022-08-16T20:37:44.633Z,43.31
2022-08-16T20:40:33.710Z,43.28
2022-08-16T20:42:57.532Z,43.30
2022-08-16T20:45:23.947Z,42.83
2022-08-16T20:48:01.591Z,42.88
2022-08-16T20:50:34.816Z,42.83
2022-08-16T20:53:08.020Z,42.75
2022-08-16T20:55:40.993Z,42.60
2022-08-16T20:58:13.672Z,42.57
2022-08-16T21:00:47.025Z,42.52
2022-08-16T21:03:19.808Z,42.41
2022-08-16T21:05:52.802Z,42.23
2022-08-16T21:08:52.787Z,42.22
2022-08-16T21:10:58.865Z,42.10
2022-08-16T21:13:31.966Z,41.95
2022-08-16T21:16:04.861Z,42.08
2022-08-16T21:18:37.755Z,41.86
2022-08-16T21:21:10.748Z,41.83
2022-08-16T21:23:43.722Z,41.87
2022-08-16T21:26:17.089Z,41.88
2022-08-16T21:28:49.906Z,41.89
2022-08-16T21:31:22.973Z,41.74
2022-08-16T21:33:56.138Z,42.54
2022-08-16T21:36:35.347Z,42.20
2022-08-16T21:39:15.956Z,42.09
2022-08-16T21:41:48.748Z,42.30
2022-08-16T21:44:21.735Z,42.05
2022-08-16T21:46:54.745Z,41.95
2022-08-16T21:49:27.870Z,42.08
2022-08-16T21:52:00.730Z,42.34
2022-08-16T21:54:33.891Z,41.97
2022-08-16T21:57:10.731Z,41.92
2022-08-16T21:59:40.055Z,41.81
2022-08-16T22:02:13.135Z,41.79
2022-08-16T22:07:36.109Z,41.69
2022-08-16T22:11:05.843Z,41.82
2022-08-16T22:12:41.984Z,41.51
2022-08-16T22:15:22.137Z,41.50
2022-08-16T22:17:52.040Z,41.46
2022-08-16T22:20:24.831Z,41.35
2022-08-16T22:22:57.931Z,41.33
2022-08-16T22:25:30.866Z,41.30
2022-08-16T22:28:03.975Z,41.30
2022-08-16T22:30:36.918Z,41.13
2022-08-16T22:33:09.815Z,41.12
2022-08-16T22:35:43.083Z,40.98
2022-08-16T22:38:55.279Z,40.81
2022-08-16T22:40:49.937Z,40.94
2022-08-16T22:43:22.981Z,40.92
2022-08-16T22:45:55.958Z,41.01
2022-08-16T22:48:28.966Z,40.94
2022-08-16T22:51:01.945Z,40.84
2022-08-16T22:53:35.081Z,40.83
2022-08-16T22:56:08.158Z,40.58
2022-08-16T22:58:40.953Z,40.70
2022-08-16T23:01:14.039Z,40.71
2022-08-16T23:03:47.004Z,40.80
2022-08-16T23:06:20.161Z,40.71
2022-08-16T23:08:59.107Z,40.73
2022-08-16T23:11:32.217Z,40.73
2022-08-16T23:14:05.213Z,40.82
2022-08-16T23:16:38.170Z,40.73
2022-08-16T23:19:11.148Z,40.75
2022-08-16T23:21:44.248Z,40.73
2022-08-16T23:24:17.159Z,40.73
2022-08-16T23:26:50.273Z,40.57
2022-08-16T23:29:26.025Z,40.64
2022-08-16T23:31:56.367Z,40.74
2022-08-16T23:34:31.199Z,40.69
2022-08-16T23:37:04.192Z,40.73
2022-08-16T23:39:37.280Z,40.76
2022-08-16T23:42:10.183Z,40.90
2022-08-16T23:44:58.137Z,40.75
2022-08-16T23:47:16.314Z,40.91
2022-08-16T23:50:00.007Z,40.79
2022-08-16T23:52:53.508Z,40.79
2022-08-16T23:54:58.206Z,40.82
2022-08-16T23:57:31.208Z,40.90
